createdAt,value
2022-11-29T00:01:59.666Z,88.57
2022-11-29T00:04:29.861Z,88.65
2022-11-29T00:06:59.131Z,91.97
2022-11-29T00:09:28.385Z,86.31
2022-11-29T00:12:15.270Z,83.65
2022-11-29T00:14:45.623Z,86.76
2022-11-29T00:17:16.491Z,85.81
2022-11-29T00:19:47.155Z,85.23
2022-11-29T00:22:16.830Z,86.84
2022-11-29T00:24:47.616Z,88.00
2022-11-29T00:27:18.680Z,85.83
2022-11-29T00:29:48.329Z,85.12
2022-11-29T00:32:18.376Z,84.54
2022-11-29T00:34:48.360Z,84.21
2022-11-29T00:37:18.364Z,92.52
2022-11-29T00:39:48.000Z,85.22
2022-11-29T00:42:19.041Z,82.07
2022-11-29T00:44:48.965Z,82.12
2022-11-29T00:47:18.570Z,84.12
2022-11-29T00:49:48.202Z,87.43
2022-11-29T00:52:18.036Z,87.80
2022-11-29T00:54:47.951Z,89.36
2022-11-29T00:57:19.044Z,87.92
2022-11-29T00:59:48.750Z,93.92
2022-11-29T01:02:18.740Z,88.33
2022-11-29T01:04:48.915Z,83.81
2022-11-29T01:07:19.045Z,86.05
2022-11-29T01:09:48.830Z,89.06
2022-11-29T01:12:20.430Z,85.24
2022-11-29T01:14:50.375Z,88.88
2022-11-29T01:17:21.145Z,86.11
2022-11-29T01:19:51.247Z,87.25
2022-11-29T01:22:21.214Z,86.26
2022-11-29T01:24:51.011Z,87.51
2022-11-29T01:27:25.277Z,85.55
2022-11-29T01:29:55.005Z,83.21
2022-11-29T01:32:24.831Z,86.36
2022-11-29T01:34:54.540Z,86.99
2022-11-29T01:37:23.756Z,87.56
2022-11-29T01:39:53.110Z,85.62
2022-11-29T01:42:24.155Z,84.84
2022-11-29T01:45:08.040Z,91.34
2022-11-29T01:47:42.727Z,90.13
2022-11-29T01:50:13.358Z,92.89
2022-11-29T01:52:43.645Z,88.77
2022-11-29T01:55:13.705Z,87.64
2022-11-29T01:57:46.209Z,88.58
2022-11-29T02:00:19.168Z,89.66
2022-11-29T02:02:53.845Z,90.74
2022-11-29T02:05:23.955Z,92.17
2022-11-29T02:07:55.344Z,89.71
2022-11-29T02:10:31.778Z,92.98
2022-11-29T02:13:10.453Z,92.56
2022-11-29T02:15:47.644Z,87.54
2022-11-29T02:18:21.721Z,86.74
2022-11-29T02:21:20.080Z,87.82
2022-11-29T02:24:31.581Z,96.63
2022-11-29T02:27:24.350Z,87.87
2022-11-29T02:30:20.607Z,89.75
2022-11-29T02:33:29.593Z,96.04
2022-11-29T02:36:19.256Z,91.32
2022-11-29T02:39:09.835Z,90.78
2022-11-29T02:41:53.715Z,85.19
2022-11-29T02:44:55.470Z,90.77
2022-11-29T02:47:33.517Z,91.49
2022-11-29T02:50:20.341Z,86.19
2022-11-29T02:52:58.710Z,84.63
2022-11-29T02:55:35.994Z,86.71
2022-11-29T02:58:15.775Z,87.70
2022-11-29T03:00:52.970Z,83.13
2022-11-29T03:03:26.896Z,86.40
2022-11-29T03:06:05.018Z,82.84
2022-11-29T03:08:39.404Z,83.02
2022-11-29T03:11:19.286Z,85.08
2022-11-29T03:14:05.452Z,88.59
2022-11-29T03:16:43.551Z,85.52
2022-11-29T03:19:33.010Z,91.71
2022-11-29T03:22:12.929Z,86.10
2022-11-29T03:24:50.280Z,89.19
2022-11-29T03:27:23.295Z,83.93
2022-11-29T03:29:58.063Z,85.50
2022-11-29T03:32:32.945Z,88.05
2022-11-29T03:35:07.611Z,84.17
2022-11-29T03:37:47.285Z,86.71
2022-11-29T03:40:21.895Z,83.02
2022-11-29T03:42:54.615Z,86.30
2022-11-29T03:45:29.186Z,88.48
2022-11-29T03:48:03.814Z,91.25
2022-11-29T03:50:38.264Z,88.40
2022-11-29T03:53:19.625Z,85.81
2022-11-29T03:55:54.670Z,91.34
2022-11-29T03:58:43.531Z,90.72
2022-11-29T04:01:48.798Z,92.56
2022-11-29T04:04:49.867Z,93.65
2022-11-29T04:07:44.407Z,86.34
2022-11-29T04:10:22.570Z,87.35
2022-11-29T04:13:15.480Z,83.09
2022-11-29T04:16:20.779Z,86.77
2022-11-29T04:19:15.431Z,85.12
2022-11-29T04:22:24.279Z,90.00
2022-11-29T04:25:22.259Z,88.33
2022-11-29T04:28:38.589Z,84.49
2022-11-29T04:31:16.912Z,83.90
2022-11-29T04:34:07.965Z,80.55
2022-11-29T04:37:16.250Z,82.44
2022-11-29T04:39:59.741Z,81.35
2022-11-29T04:42:54.147Z,84.19
2022-11-29T04:45:49.390Z,81.28
2022-11-29T04:48:37.756Z,79.34
2022-11-29T04:51:17.250Z,83.45
2022-11-29T04:53:57.609Z,81.51
2022-11-29T04:56:34.706Z,82.80
2022-11-29T04:59:11.945Z,90.44
2022-11-29T05:01:52.420Z,82.94
2022-11-29T05:04:25.167Z,84.18
2022-11-29T05:07:03.505Z,81.52
2022-11-29T05:09:46.590Z,82.47
2022-11-29T05:12:21.014Z,84.22
2022-11-29T05:15:15.423Z,81.13
2022-11-29T05:17:56.859Z,88.69
2022-11-29T05:20:40.066Z,91.41
2022-11-29T05:23:31.265Z,88.14
2022-11-29T05:26:06.231Z,83.74
2022-11-29T05:28:43.947Z,81.72
2022-11-29T05:31:31.279Z,84.17
2022-11-29T05:34:30.283Z,81.00
2022-11-29T05:37:08.946Z,80.26
2022-11-29T05:39:51.124Z,81.52
2022-11-29T05:42:37.271Z,82.36
2022-11-29T05:45:11.700Z,82.30
2022-11-29T05:47:48.529Z,81.56
2022-11-29T05:50:25.080Z,80.80
2022-11-29T05:52:59.416Z,81.70
2022-11-29T05:55:51.485Z,80.41
2022-11-29T05:58:30.605Z,83.36
2022-11-29T06:01:06.277Z,82.73
2022-11-29T06:03:40.766Z,84.83
2022-11-29T06:06:17.282Z,85.50
2022-11-29T06:08:52.153Z,89.89
2022-11-29T06:11:28.160Z,86.23
2022-11-29T06:14:06.300Z,84.33
2022-11-29T06:16:52.741Z,82.31
2022-11-29T06:19:49.640Z,82.38
2022-11-29T06:22:45.177Z,80.91
2022-11-29T06:25:27.283Z,82.03
2022-11-29T06:28:09.674Z,79.55
2022-11-29T06:30:50.691Z,80.13
2022-11-29T06:33:24.670Z,79.93
2022-11-29T06:36:09.449Z,82.82
2022-11-29T06:38:40.455Z,79.47
2022-11-29T06:41:16.421Z,80.36
2022-11-29T06:43:46.271Z,80.61
2022-11-29T06:46:22.829Z,83.08
2022-11-29T06:49:02.314Z,84.48
2022-11-29T06:51:38.054Z,83.80
2022-11-29T06:54:20.768Z,84.31
2022-11-29T06:56:59.674Z,83.54
2022-11-29T06:59:39.605Z,81.62
2022-11-29T07:02:23.523Z,80.77
2022-11-29T07:05:03.561Z,80.47
2022-11-29T07:07:36.380Z,77.57
2022-11-29T07:10:12.041Z,81.49
2022-11-29T07:12:45.684Z,80.31
2022-11-29T07:15:21.045Z,78.24
2022-11-29T07:18:01.464Z,81.80
2022-11-29T07:20:35.911Z,79.96
2022-11-29T07:23:13.961Z,79.84
2022-11-29T07:25:53.605Z,77.89
2022-11-29T07:28:32.086Z,79.43
2022-11-29T07:31:10.441Z,80.01
2022-11-29T07:33:47.275Z,80.30
2022-11-29T07:36:23.375Z,79.77
2022-11-29T07:39:01.132Z,79.92
2022-11-29T07:41:36.015Z,79.48
2022-11-29T07:44:12.464Z,80.79
2022-11-29T07:46:42.444Z,81.19
2022-11-29T07:49:12.622Z,79.49
2022-11-29T07:51:42.435Z,78.44
2022-11-29T07:54:50.777Z,79.94
2022-11-29T07:57:20.474Z,81.46
2022-11-29T07:59:50.520Z,84.08
2022-11-29T08:02:29.040Z,82.33
2022-11-29T08:04:59.417Z,80.52
2022-11-29T08:07:29.614Z,80.09
2022-11-29T08:10:01.590Z,81.01
2022-11-29T08:12:31.725Z,85.95
2022-11-29T08:15:01.440Z,89.00
2022-11-29T08:17:31.240Z,80.33
2022-11-29T08:20:04.185Z,86.64
2022-11-29T08:22:34.310Z,82.48
2022-11-29T08:25:06.428Z,81.96
2022-11-29T08:27:37.035Z,86.95
2022-11-29T08:30:07.893Z,83.44
2022-11-29T08:32:37.645Z,78.55
2022-11-29T08:35:07.521Z,80.93
2022-11-29T08:37:37.441Z,82.87
2022-11-29T08:40:11.412Z,86.03
2022-11-29T08:42:41.261Z,79.21
2022-11-29T08:45:12.296Z,81.65
2022-11-29T08:47:43.300Z,81.97
2022-11-29T08:50:15.856Z,87.44
2022-11-29T08:53:03.866Z,86.44
2022-11-29T08:55:36.936Z,84.08
2022-11-29T08:58:08.294Z,87.38
2022-11-29T09:00:38.498Z,86.39
2022-11-29T09:03:26.452Z,88.27
2022-11-29T09:05:56.351Z,83.64
2022-11-29T09:08:26.152Z,83.98
2022-11-29T09:10:57.220Z,84.06
2022-11-29T09:13:26.822Z,81.92
2022-11-29T09:15:57.886Z,80.17
2022-11-29T09:18:28.886Z,81.86
2022-11-29T09:21:00.236Z,81.20
2022-11-29T09:23:30.037Z,82.48
2022-11-29T09:26:01.591Z,82.83
2022-11-29T09:28:31.895Z,84.90
2022-11-29T09:31:07.355Z,80.67
2022-11-29T09:33:37.811Z,81.39
2022-11-29T09:36:10.280Z,81.37
2022-11-29T09:38:40.132Z,80.96
2022-11-29T09:41:37.940Z,81.54
2022-11-29T09:44:15.265Z,78.70
2022-11-29T09:46:58.367Z,83.96
2022-11-29T09:49:42.437Z,82.20
2022-11-29T09:52:18.380Z,80.21
2022-11-29T09:54:55.801Z,79.09
2022-11-29T09:57:27.970Z,78.58
2022-11-29T10:00:03.377Z,74.75
2022-11-29T10:02:38.575Z,78.88
2022-11-29T10:05:14.945Z,81.47
2022-11-29T10:07:48.220Z,78.26
2022-11-29T10:10:22.401Z,81.17
2022-11-29T10:12:56.942Z,80.25
2022-11-29T10:15:29.724Z,78.77
2022-11-29T10:18:03.389Z,81.46
2022-11-29T10:20:40.523Z,79.32
2022-11-29T10:23:17.622Z,77.26
2022-11-29T10:25:50.049Z,78.03
2022-11-29T10:28:23.460Z,79.67
2022-11-29T10:30:56.476Z,79.13
2022-11-29T10:33:28.715Z,79.59
2022-11-29T10:36:00.310Z,77.94
2022-11-29T10:38:31.517Z,79.87
2022-11-29T10:41:05.800Z,80.97
2022-11-29T10:43:39.474Z,80.35
2022-11-29T10:46:14.229Z,82.78
2022-11-29T10:48:44.206Z,82.16
2022-11-29T10:51:18.710Z,81.71
2022-11-29T10:53:48.595Z,78.59
2022-11-29T10:56:24.439Z,79.15
2022-11-29T10:59:06.375Z,77.97
2022-11-29T11:01:38.626Z,78.97
2022-11-29T11:04:11.559Z,79.55
2022-11-29T11:06:47.899Z,82.12
2022-11-29T11:09:23.100Z,79.68
2022-11-29T11:11:54.446Z,77.18
2022-11-29T11:14:27.993Z,76.72
2022-11-29T11:16:57.753Z,80.34
2022-11-29T11:19:32.516Z,76.01
2022-11-29T11:22:04.215Z,76.01
2022-11-29T11:24:36.594Z,74.51
2022-11-29T11:27:06.595Z,76.67
2022-11-29T11:29:41.074Z,75.31
2022-11-29T11:32:18.635Z,75.44
2022-11-29T11:34:54.535Z,76.79
2022-11-29T11:37:27.321Z,77.31
2022-11-29T11:39:58.598Z,79.80
2022-11-29T11:42:39.427Z,79.60
2022-11-29T11:45:29.161Z,76.00
2022-11-29T11:48:02.511Z,77.60
2022-11-29T11:50:35.730Z,79.75
2022-11-29T11:53:08.525Z,77.40
2022-11-29T11:55:40.899Z,76.97
2022-11-29T11:58:19.601Z,78.44
2022-11-29T12:01:03.919Z,80.23
2022-11-29T12:03:49.558Z,76.67
2022-11-29T12:06:29.899Z,75.15
2022-11-29T12:09:05.441Z,75.49
2022-11-29T12:11:49.476Z,74.14
2022-11-29T12:14:27.275Z,76.16
2022-11-29T12:17:08.293Z,78.28
2022-11-29T12:19:45.957Z,79.92
2022-11-29T12:22:19.819Z,82.45
2022-11-29T12:24:55.830Z,81.65
2022-11-29T12:27:25.615Z,86.53
2022-11-29T12:29:55.511Z,83.85
2022-11-29T12:32:37.623Z,79.03
2022-11-29T12:35:36.139Z,75.11
2022-11-29T12:38:14.075Z,73.92
2022-11-29T12:40:48.766Z,78.03
2022-11-29T12:43:30.236Z,80.38
2022-11-29T12:46:05.343Z,77.73
2022-11-29T12:48:41.411Z,80.68
2022-11-29T12:51:17.835Z,77.00
2022-11-29T12:54:01.166Z,75.83
2022-11-29T12:56:38.680Z,81.44
2022-11-29T12:59:19.233Z,78.06
2022-11-29T13:02:07.024Z,78.66
2022-11-29T13:04:44.632Z,79.37
2022-11-29T13:07:23.528Z,83.38
2022-11-29T13:10:17.880Z,81.92
2022-11-29T13:12:50.806Z,78.34
2022-11-29T13:15:23.667Z,76.78
2022-11-29T13:17:58.939Z,80.18
2022-11-29T13:20:38.576Z,78.28
2022-11-29T13:23:16.336Z,81.05
2022-11-29T13:25:50.766Z,81.19
2022-11-29T13:28:24.632Z,81.09
2022-11-29T13:30:56.856Z,79.56
2022-11-29T13:33:32.076Z,81.92
2022-11-29T13:36:13.805Z,80.13
2022-11-29T13:38:50.837Z,81.51
2022-11-29T13:41:28.215Z,80.00
2022-11-29T13:44:02.467Z,79.93
2022-11-29T13:46:37.943Z,76.62
2022-11-29T13:49:07.677Z,76.44
2022-11-29T13:51:41.315Z,74.57
2022-11-29T13:54:30.444Z,76.12
2022-11-29T13:57:10.426Z,79.75
2022-11-29T13:59:47.487Z,76.91
2022-11-29T14:02:28.059Z,75.44
2022-11-29T14:04:57.976Z,73.98
2022-11-29T14:07:33.381Z,74.67
2022-11-29T14:10:05.453Z,72.81
2022-11-29T14:12:41.520Z,74.09
2022-11-29T14:15:33.846Z,74.11
2022-11-29T14:18:08.550Z,73.67
2022-11-29T14:20:54.933Z,73.48
2022-11-29T14:23:48.816Z,70.71
2022-11-29T14:26:28.781Z,72.84
2022-11-29T14:29:01.220Z,70.27
2022-11-29T14:31:51.966Z,71.56
2022-11-29T14:34:43.780Z,73.21
2022-11-29T14:37:31.941Z,72.82
2022-11-29T14:40:13.652Z,70.78
2022-11-29T14:43:06.180Z,71.92
2022-11-29T14:45:37.165Z,72.82
2022-11-29T14:48:07.186Z,72.49
2022-11-29T14:50:38.930Z,73.28
2022-11-29T14:53:26.091Z,74.48
2022-11-29T14:56:38.971Z,73.27
2022-11-29T14:59:43.560Z,74.13
2022-11-29T15:02:28.697Z,73.96
2022-11-29T15:04:59.712Z,75.23
2022-11-29T15:07:31.793Z,70.67
2022-11-29T15:10:04.755Z,71.45
2022-11-29T15:12:37.716Z,73.86
2022-11-29T15:15:26.026Z,73.84
2022-11-29T15:18:01.417Z,74.97
2022-11-29T15:20:55.092Z,75.15
2022-11-29T15:23:24.714Z,72.67
2022-11-29T15:25:56.340Z,73.08
2022-11-29T15:28:26.864Z,71.00
2022-11-29T15:31:07.192Z,72.83
2022-11-29T15:33:40.805Z,73.03
2022-11-29T15:36:13.897Z,72.31
2022-11-29T15:38:45.585Z,71.31
2022-11-29T15:41:23.495Z,71.18
2022-11-29T15:43:55.882Z,72.13
2022-11-29T15:46:28.900Z,72.40
2022-11-29T15:49:17.030Z,72.56
2022-11-29T15:51:47.551Z,72.37
2022-11-29T15:54:22.124Z,72.81
2022-11-29T15:56:53.227Z,72.47
2022-11-29T15:59:30.709Z,72.66
2022-11-29T16:02:04.061Z,73.59
2022-11-29T16:04:33.820Z,73.01
2022-11-29T16:07:05.751Z,72.47
2022-11-29T16:09:37.600Z,73.13
2022-11-29T16:12:11.926Z,73.33
2022-11-29T16:14:51.776Z,73.62
2022-11-29T16:17:22.970Z,72.69
2022-11-29T16:19:52.624Z,71.96
2022-11-29T16:22:25.065Z,72.21
2022-11-29T16:25:05.344Z,71.13
2022-11-29T16:27:36.521Z,71.70
2022-11-29T16:30:08.869Z,73.69
2022-11-29T16:32:44.624Z,73.03
2022-11-29T16:35:16.665Z,70.20
2022-11-29T16:37:47.365Z,70.70
2022-11-29T16:40:25.490Z,69.99
2022-11-29T16:43:23.532Z,72.90
2022-11-29T16:46:35.376Z,70.72
2022-11-29T16:49:35.017Z,71.35
2022-11-29T16:52:22.495Z,70.83
2022-11-29T16:54:53.239Z,71.05
2022-11-29T16:57:23.067Z,70.02
2022-11-29T16:59:53.771Z,71.13
2022-11-29T17:02:23.661Z,73.01
2022-11-29T17:04:56.630Z,71.98
2022-11-29T17:07:30.814Z,72.65
2022-11-29T17:10:01.139Z,71.73
2022-11-29T17:12:31.375Z,71.29
2022-11-29T17:15:01.650Z,72.00
2022-11-29T17:17:31.666Z,70.88
2022-11-29T17:20:02.430Z,71.69
2022-11-29T17:22:32.240Z,72.20
2022-11-29T17:25:01.924Z,71.25
2022-11-29T17:27:31.700Z,71.46
2022-11-29T17:30:01.488Z,72.37
2022-11-29T17:32:31.505Z,69.81
2022-11-29T17:35:02.865Z,72.69
2022-11-29T17:37:32.711Z,72.18
2022-11-29T17:40:02.321Z,72.58
2022-11-29T17:42:32.010Z,71.86
2022-11-29T17:45:01.751Z,72.00
2022-11-29T17:47:31.736Z,70.57
2022-11-29T17:50:02.997Z,71.65
2022-11-29T17:52:32.602Z,74.25
2022-11-29T17:55:02.397Z,72.74
2022-11-29T17:57:32.146Z,71.60
2022-11-29T18:00:04.555Z,73.37
2022-11-29T18:02:34.211Z,74.25
2022-11-29T18:05:05.842Z,73.44
2022-11-29T18:07:56.374Z,72.54
2022-11-29T18:10:26.430Z,72.11
2022-11-29T18:12:56.175Z,72.15
2022-11-29T18:15:25.884Z,74.70
2022-11-29T18:17:55.431Z,73.06
2022-11-29T18:20:26.606Z,76.08
2022-11-29T18:22:56.639Z,74.05
2022-11-29T18:25:41.625Z,74.80
2022-11-29T18:28:11.576Z,74.20
2022-11-29T18:30:41.154Z,74.53
2022-11-29T18:33:10.853Z,72.87
2022-11-29T18:35:41.871Z,72.89
2022-11-29T18:38:16.119Z,72.08
2022-11-29T18:40:47.226Z,71.64
2022-11-29T18:43:18.771Z,72.33
2022-11-29T18:45:48.377Z,71.40
2022-11-29T18:48:18.065Z,72.10
2022-11-29T18:50:49.371Z,71.39
2022-11-29T18:53:18.962Z,70.46
2022-11-29T18:55:49.046Z,71.48
2022-11-29T18:58:18.597Z,72.26
2022-11-29T19:00:48.140Z,72.42
2022-11-29T19:03:17.680Z,71.23
2022-11-29T19:05:54.659Z,71.13
2022-11-29T19:08:25.794Z,71.31
2022-11-29T19:10:55.569Z,72.53
2022-11-29T19:13:26.962Z,71.98
2022-11-29T19:15:57.446Z,72.55
2022-11-29T19:18:26.851Z,72.53
2022-11-29T19:21:06.612Z,72.68
2022-11-29T19:23:38.550Z,72.48
2022-11-29T19:26:11.706Z,74.45
2022-11-29T19:28:43.094Z,75.85
2022-11-29T19:31:13.894Z,73.54
2022-11-29T19:33:46.347Z,73.82
2022-11-29T19:36:19.798Z,74.10
2022-11-29T19:38:53.403Z,74.31
2022-11-29T19:41:25.567Z,71.97
2022-11-29T19:43:57.396Z,73.76
2022-11-29T19:46:28.899Z,74.58
2022-11-29T19:49:00.970Z,72.09
2022-11-29T19:51:32.978Z,73.13
2022-11-29T19:54:05.300Z,73.20
2022-11-29T19:56:36.002Z,75.61
2022-11-29T19:59:07.371Z,73.50
2022-11-29T20:01:41.531Z,74.49
2022-11-29T20:04:13.329Z,72.79
2022-11-29T20:06:45.935Z,72.05
2022-11-29T20:09:17.167Z,72.20
2022-11-29T20:11:47.902Z,71.38
2022-11-29T20:14:18.395Z,72.17
2022-11-29T20:16:48.975Z,72.04
2022-11-29T20:19:19.825Z,70.28
2022-11-29T20:21:51.820Z,71.13
2022-11-29T20:24:21.675Z,71.80
2022-11-29T20:26:52.124Z,72.23
2022-11-29T20:29:27.533Z,71.08
2022-11-29T20:31:57.400Z,72.22
2022-11-29T20:34:27.678Z,72.37
2022-11-29T20:37:14.330Z,73.45
2022-11-29T20:39:50.631Z,72.32
2022-11-29T20:42:56.699Z,71.21
2022-11-29T20:45:27.380Z,72.29
2022-11-29T20:48:00.347Z,73.77
2022-11-29T20:50:33.970Z,71.43
2022-11-29T20:53:14.696Z,73.15
2022-11-29T20:55:47.946Z,73.12
2022-11-29T20:58:19.636Z,71.81
2022-11-29T21:00:49.511Z,73.43
2022-11-29T21:03:20.117Z,76.13
2022-11-29T21:05:51.428Z,73.67
2022-11-29T21:08:24.060Z,73.97
2022-11-29T21:10:55.399Z,72.88
2022-11-29T21:13:25.965Z,73.08
2022-11-29T21:15:56.289Z,72.89
2022-11-29T21:18:27.910Z,74.00
2022-11-29T21:21:10.440Z,71.38
2022-11-29T21:24:10.685Z,71.32
2022-11-29T21:26:43.289Z,71.93
2022-11-29T21:29:18.657Z,71.84
2022-11-29T21:31:50.859Z,71.38
2022-11-29T21:34:20.848Z,71.33
2022-11-29T21:36:54.817Z,72.01
2022-11-29T21:39:32.311Z,70.74
2022-11-29T21:42:02.016Z,71.07
2022-11-29T21:44:32.533Z,71.07
2022-11-29T21:47:02.140Z,70.99
2022-11-29T21:49:31.825Z,70.31
2022-11-29T21:52:01.941Z,70.08
2022-11-29T21:54:33.334Z,70.98
2022-11-29T21:57:03.891Z,71.57
2022-11-29T21:59:33.906Z,71.85
2022-11-29T22:02:04.211Z,71.72
2022-11-29T22:04:34.171Z,72.06
2022-11-29T22:07:03.912Z,71.16
2022-11-29T22:09:35.396Z,71.62
2022-11-29T22:12:25.800Z,72.07
2022-11-29T22:14:55.775Z,73.02
2022-11-29T22:17:25.645Z,73.63
2022-11-29T22:19:55.640Z,73.38
2022-11-29T22:22:28.050Z,70.75
2022-11-29T22:24:59.962Z,70.49
2022-11-29T22:27:29.876Z,72.06
2022-11-29T22:29:59.988Z,71.51
2022-11-29T22:32:29.650Z,72.12
2022-11-29T22:34:59.906Z,73.02
2022-11-29T22:37:31.526Z,70.72
2022-11-29T22:40:03.966Z,70.81
2022-11-29T22:42:33.965Z,70.18
2022-11-29T22:45:04.946Z,70.03
2022-11-29T22:47:34.561Z,70.49
2022-11-29T22:50:04.171Z,70.70
2022-11-29T22:52:33.593Z,72.33
2022-11-29T22:55:05.202Z,71.44
2022-11-29T22:57:35.565Z,70.32
2022-11-29T23:00:09.451Z,69.31
2022-11-29T23:02:39.206Z,69.72
2022-11-29T23:05:09.058Z,70.12
2022-11-29T23:07:39.186Z,70.16
2022-11-29T23:10:14.900Z,69.78
2022-11-29T23:12:44.731Z,70.01
2022-11-29T23:15:14.675Z,70.64
2022-11-29T23:17:44.856Z,71.38
2022-11-29T23:20:15.035Z,70.63
2022-11-29T23:22:44.736Z,71.39
2022-11-29T23:25:15.815Z,73.12
2022-11-29T23:27:47.634Z,73.42
2022-11-29T23:30:17.976Z,71.73
2022-11-29T23:32:47.995Z,72.74
2022-11-29T23:35:17.795Z,73.30
2022-11-29T23:37:47.501Z,71.58
2022-11-29T23:40:19.132Z,70.80
2022-11-29T23:42:53.072Z,71.98
2022-11-29T23:45:22.825Z,73.40
2022-11-29T23:47:52.425Z,72.59
2022-11-29T23:50:21.966Z,69.95
2022-11-29T23:52:55.260Z,69.63
2022-11-29T23:55:27.200Z,70.76
2022-11-29T23:57:57.420Z,71.13
